createdAt,value
2022-11-07T00:01:47.159Z,36.37
2022-11-07T00:04:15.186Z,34.10
2022-11-07T00:06:42.644Z,29.13
2022-11-07T00:09:10.111Z,28.57
2022-11-07T00:11:37.367Z,29.90
2022-11-07T00:14:04.597Z,30.80
2022-11-07T00:16:32.772Z,38.40
2022-11-07T00:19:00.119Z,37.23
2022-11-07T00:21:27.345Z,43.37
2022-11-07T00:23:54.654Z,45.20
2022-11-07T00:26:22.250Z,43.97
2022-11-07T00:28:52.710Z,42.17
2022-11-07T00:31:20.019Z,43.27
2022-11-07T00:33:47.464Z,42.30
2022-11-07T00:36:29.072Z,42.07
2022-11-07T00:38:56.662Z,43.30
2022-11-07T00:41:24.481Z,45.53
2022-11-07T00:43:52.274Z,44.77
2022-11-07T00:46:20.275Z,42.83
2022-11-07T00:48:48.455Z,39.17
2022-11-07T00:51:18.554Z,38.70
2022-11-07T00:53:46.669Z,39.50
2022-11-07T00:56:17.964Z,35.90
2022-11-07T00:58:45.643Z,34.73
2022-11-07T01:01:22.577Z,34.40
2022-11-07T01:04:08.850Z,32.80
2022-11-07T01:06:38.672Z,31.70
2022-11-07T01:09:14.374Z,28.33
2022-11-07T01:11:42.163Z,33.50
2022-11-07T01:14:10.744Z,34.63
2022-11-07T01:16:39.128Z,33.20
2022-11-07T01:19:08.301Z,33.60
2022-11-07T01:21:38.576Z,31.80
2022-11-07T01:24:07.363Z,31.73
2022-11-07T01:26:34.856Z,31.23
2022-11-07T01:29:02.075Z,34.00
2022-11-07T01:31:31.539Z,33.37
2022-11-07T01:34:00.201Z,33.87
2022-11-07T01:36:28.341Z,34.57
2022-11-07T01:38:55.924Z,35.50
2022-11-07T01:41:27.388Z,35.77
2022-11-07T01:44:23.403Z,35.07
2022-11-07T01:46:51.309Z,35.87
2022-11-07T01:49:28.464Z,33.27
2022-11-07T01:52:20.047Z,35.03
2022-11-07T01:55:16.695Z,32.57
2022-11-07T01:57:52.251Z,35.20
2022-11-07T02:00:21.817Z,35.37
2022-11-07T02:02:55.922Z,34.23
2022-11-07T02:05:31.438Z,33.60
2022-11-07T02:08:00.306Z,33.37
2022-11-07T02:10:29.248Z,33.63
2022-11-07T02:12:58.454Z,32.03
2022-11-07T02:15:26.608Z,34.07
2022-11-07T02:17:55.314Z,32.43
2022-11-07T02:20:22.569Z,36.97
2022-11-07T02:22:57.669Z,34.30
2022-11-07T02:25:25.008Z,36.13
2022-11-07T02:27:57.322Z,33.00
2022-11-07T02:30:28.345Z,34.43
2022-11-07T02:32:56.026Z,31.47
2022-11-07T02:35:45.769Z,32.97
2022-11-07T02:38:23.640Z,34.90
2022-11-07T02:41:13.489Z,33.30
2022-11-07T02:43:46.351Z,31.90
2022-11-07T02:46:14.747Z,33.80
2022-11-07T02:48:54.988Z,31.73
2022-11-07T02:51:22.365Z,31.30
2022-11-07T02:53:49.738Z,34.27
2022-11-07T02:56:17.474Z,33.77
2022-11-07T02:58:45.037Z,37.63
2022-11-07T03:01:13.187Z,38.83
2022-11-07T03:03:43.758Z,38.43
2022-11-07T03:06:14.442Z,35.23
2022-11-07T03:08:43.379Z,43.73
2022-11-07T03:11:12.182Z,50.57
2022-11-07T03:13:40.104Z,41.23
2022-11-07T03:16:09.537Z,43.63
2022-11-07T03:18:37.215Z,39.97
2022-11-07T03:21:05.454Z,39.20
2022-11-07T03:23:34.008Z,34.57
2022-11-07T03:26:01.455Z,36.80
2022-11-07T03:28:28.664Z,34.77
2022-11-07T03:30:56.424Z,36.63
2022-11-07T03:33:23.862Z,33.37
2022-11-07T03:35:51.281Z,35.03
2022-11-07T03:38:18.549Z,38.83
2022-11-07T03:40:47.130Z,37.43
2022-11-07T03:43:15.114Z,35.57
2022-11-07T03:45:42.792Z,35.47
2022-11-07T03:48:10.011Z,33.23
2022-11-07T03:50:37.369Z,33.83
2022-11-07T03:53:04.620Z,34.27
2022-11-07T03:55:31.893Z,32.77
2022-11-07T03:57:59.236Z,33.97
2022-11-07T04:00:26.594Z,35.80
2022-11-07T04:02:54.333Z,34.03
2022-11-07T04:05:22.018Z,33.30
2022-11-07T04:07:49.245Z,35.80
2022-11-07T04:10:16.917Z,35.93
2022-11-07T04:13:03.281Z,39.43
2022-11-07T04:15:49.144Z,45.87
2022-11-07T04:18:16.671Z,49.40
2022-11-07T04:20:44.688Z,43.20
2022-11-07T04:23:12.449Z,41.03
2022-11-07T04:25:58.327Z,35.03
2022-11-07T04:28:25.877Z,31.37
2022-11-07T04:30:53.309Z,30.30
2022-11-07T04:33:23.825Z,31.23
2022-11-07T04:35:51.107Z,32.17
2022-11-07T04:38:18.481Z,33.50
2022-11-07T04:40:46.412Z,31.67
2022-11-07T04:43:13.878Z,29.60
2022-11-07T04:45:42.122Z,31.10
2022-11-07T04:48:11.148Z,36.97
2022-11-07T04:50:38.943Z,37.50
2022-11-07T04:53:06.588Z,35.20
2022-11-07T04:55:37.629Z,43.40
2022-11-07T04:58:05.195Z,45.23
2022-11-07T05:00:32.559Z,39.07
2022-11-07T05:02:59.936Z,35.53
2022-11-07T05:05:27.658Z,45.80
2022-11-07T05:07:54.994Z,41.23
2022-11-07T05:10:28.157Z,43.93
2022-11-07T05:12:58.835Z,46.03
2022-11-07T05:15:26.089Z,33.73
2022-11-07T05:17:53.637Z,34.30
2022-11-07T05:20:28.689Z,33.37
2022-11-07T05:23:16.006Z,33.77
2022-11-07T05:25:45.911Z,60.73
2022-11-07T05:28:16.209Z,40.13
2022-11-07T05:30:45.212Z,34.57
2022-11-07T05:33:15.921Z,33.57
2022-11-07T05:35:44.191Z,29.90
2022-11-07T05:38:12.043Z,28.13
2022-11-07T05:40:40.660Z,31.93
2022-11-07T05:43:10.897Z,28.43
2022-11-07T05:45:38.817Z,26.80
2022-11-07T05:48:10.428Z,26.10
2022-11-07T05:50:38.189Z,25.30
2022-11-07T05:53:07.886Z,25.80
2022-11-07T05:55:35.357Z,24.93
2022-11-07T05:58:09.062Z,24.07
2022-11-07T06:00:36.441Z,25.93
2022-11-07T06:03:04.070Z,24.83
2022-11-07T06:05:31.486Z,24.10
2022-11-07T06:07:58.790Z,22.77
2022-11-07T06:10:26.448Z,25.70
2022-11-07T06:13:02.200Z,25.30
2022-11-07T06:15:32.907Z,25.90
2022-11-07T06:18:02.101Z,26.57
2022-11-07T06:20:30.184Z,24.73
2022-11-07T06:23:00.116Z,25.30
2022-11-07T06:25:29.635Z,25.77
2022-11-07T06:28:01.985Z,23.43
2022-11-07T06:30:29.543Z,23.93
2022-11-07T06:33:00.291Z,21.30
2022-11-07T06:35:27.713Z,24.33
2022-11-07T06:37:54.985Z,25.73
2022-11-07T06:40:22.337Z,24.30
2022-11-07T06:42:49.619Z,23.70
2022-11-07T06:45:17.498Z,22.47
2022-11-07T06:47:44.819Z,21.37
2022-11-07T06:50:12.079Z,24.07
2022-11-07T06:52:39.335Z,38.27
2022-11-07T06:55:07.414Z,23.07
2022-11-07T06:57:34.846Z,23.03
2022-11-07T07:00:05.686Z,22.57
2022-11-07T07:03:00.862Z,21.57
2022-11-07T07:05:21.444Z,21.97
2022-11-07T07:07:49.252Z,20.13
2022-11-07T07:10:16.566Z,21.37
2022-11-07T07:12:44.808Z,20.67
2022-11-07T07:15:12.095Z,20.53
2022-11-07T07:17:39.495Z,18.63
2022-11-07T07:20:07.238Z,18.43
2022-11-07T07:22:34.736Z,18.67
2022-11-07T07:25:01.936Z,16.80
2022-11-07T07:27:29.163Z,15.83
2022-11-07T07:29:56.878Z,16.43
2022-11-07T07:32:27.256Z,17.77
2022-11-07T07:34:55.076Z,16.70
2022-11-07T07:37:22.304Z,21.67
2022-11-07T07:39:49.732Z,27.47
2022-11-07T07:42:17.359Z,21.13
2022-11-07T07:44:44.755Z,19.70
2022-11-07T07:47:12.123Z,19.50
2022-11-07T07:49:39.485Z,15.60
2022-11-07T07:52:07.041Z,14.37
2022-11-07T07:54:34.239Z,14.43
2022-11-07T07:57:01.943Z,14.20
2022-11-07T07:59:29.186Z,14.53
2022-11-07T08:01:57.333Z,13.87
2022-11-07T08:04:25.012Z,13.50
2022-11-07T08:06:52.286Z,11.73
2022-11-07T08:09:19.537Z,13.03
2022-11-07T08:11:46.915Z,11.90
2022-11-07T08:14:14.532Z,10.53
2022-11-07T08:16:41.817Z,9.37
2022-11-07T08:19:09.488Z,8.00
2022-11-07T08:21:36.749Z,8.00
2022-11-07T08:24:04.450Z,7.60
2022-11-07T08:26:31.844Z,7.70
2022-11-07T08:28:59.169Z,9.03
2022-11-07T08:31:26.448Z,7.47
2022-11-07T08:33:53.733Z,8.20
2022-11-07T08:36:21.273Z,6.93
2022-11-07T08:38:49.325Z,9.77
2022-11-07T08:41:21.984Z,7.53
2022-11-07T08:43:49.950Z,6.57
2022-11-07T08:46:20.298Z,5.50
2022-11-07T08:48:47.692Z,5.77
2022-11-07T08:51:14.963Z,4.67
2022-11-07T08:53:42.231Z,4.90
2022-11-07T08:56:10.565Z,4.27
2022-11-07T08:58:37.863Z,4.53
2022-11-07T09:01:09.382Z,4.17
2022-11-07T09:03:50.421Z,4.10
2022-11-07T09:06:20.598Z,3.83
2022-11-07T09:08:47.906Z,3.90
2022-11-07T09:11:19.403Z,3.83
2022-11-07T09:13:49.966Z,3.87
2022-11-07T09:16:20.654Z,3.90
2022-11-07T09:18:50.215Z,3.50
2022-11-07T09:21:22.425Z,4.27
2022-11-07T09:23:51.481Z,3.77
2022-11-07T09:26:19.213Z,4.13
2022-11-07T09:28:51.097Z,3.70
2022-11-07T09:31:19.657Z,3.53
2022-11-07T09:33:46.851Z,3.67
2022-11-07T09:36:14.842Z,3.00
2022-11-07T09:38:42.142Z,3.17
2022-11-07T09:41:32.918Z,4.47
2022-11-07T09:44:07.168Z,3.67
2022-11-07T09:46:53.017Z,3.23
2022-11-07T09:49:35.273Z,3.57
2022-11-07T09:52:17.793Z,3.60
2022-11-07T09:54:56.237Z,2.97
2022-11-07T09:57:24.521Z,2.50
2022-11-07T09:59:56.162Z,2.93
2022-11-07T10:02:31.109Z,2.30
2022-11-07T10:05:01.975Z,2.70
2022-11-07T10:07:47.788Z,2.53
2022-11-07T10:10:32.985Z,2.77
2022-11-07T10:13:29.022Z,2.40
2022-11-07T10:16:22.917Z,2.13
2022-11-07T10:19:31.801Z,2.83
2022-11-07T10:22:22.819Z,2.50
2022-11-07T10:25:19.211Z,2.37
2022-11-07T10:27:52.561Z,2.70
2022-11-07T10:30:21.785Z,4.97
2022-11-07T10:33:06.503Z,4.33
2022-11-07T10:35:41.674Z,2.77
2022-11-07T10:38:25.439Z,2.83
2022-11-07T10:40:53.910Z,2.80
2022-11-07T10:43:36.733Z,2.60
2022-11-07T10:46:44.032Z,3.50
2022-11-07T10:49:29.440Z,3.27
2022-11-07T10:52:14.927Z,3.10
2022-11-07T10:54:43.701Z,2.90
2022-11-07T10:57:16.700Z,2.90
2022-11-07T10:59:53.069Z,2.60
2022-11-07T11:02:22.108Z,3.03
2022-11-07T11:04:54.271Z,2.93
2022-11-07T11:07:28.333Z,3.40
2022-11-07T11:09:58.401Z,3.13
2022-11-07T11:12:28.791Z,3.07
2022-11-07T11:15:16.657Z,3.00
2022-11-07T11:17:45.744Z,3.23
2022-11-07T11:20:39.329Z,3.17
2022-11-07T11:23:16.014Z,2.67
2022-11-07T11:25:46.034Z,3.40
2022-11-07T11:28:24.707Z,3.07
2022-11-07T11:30:59.352Z,2.73
2022-11-07T11:33:35.799Z,2.57
2022-11-07T11:36:15.262Z,2.50
2022-11-07T11:38:46.272Z,2.90
2022-11-07T11:41:28.592Z,2.23
2022-11-07T11:44:19.783Z,2.80
2022-11-07T11:46:58.822Z,2.57
2022-11-07T11:49:32.796Z,2.97
2022-11-07T11:52:07.739Z,2.70
2022-11-07T11:54:35.403Z,2.60
2022-11-07T11:57:27.033Z,2.60
2022-11-07T12:00:13.049Z,2.80
2022-11-07T12:02:50.674Z,2.40
2022-11-07T12:05:45.507Z,2.60
2022-11-07T12:08:21.067Z,3.07
2022-11-07T12:11:30.704Z,2.60
2022-11-07T12:14:22.117Z,2.53
2022-11-07T12:17:04.244Z,2.10
2022-11-07T12:19:41.918Z,2.73
2022-11-07T12:22:31.054Z,2.27
2022-11-07T12:25:21.747Z,5.23
2022-11-07T12:28:12.720Z,2.03
2022-11-07T12:30:57.560Z,2.37
2022-11-07T12:33:32.380Z,2.13
2022-11-07T12:36:16.656Z,1.97
2022-11-07T12:39:02.015Z,1.93
2022-11-07T12:41:37.865Z,2.50
2022-11-07T12:44:35.116Z,2.50
2022-11-07T12:47:10.219Z,2.47
2022-11-07T12:50:26.455Z,5.93
2022-11-07T12:53:27.319Z,2.10
2022-11-07T12:56:17.954Z,2.23
2022-11-07T12:58:47.649Z,1.83
2022-11-07T13:01:19.282Z,1.60
2022-11-07T13:04:16.612Z,1.60
2022-11-07T13:07:14.007Z,2.33
2022-11-07T13:10:10.391Z,1.67
2022-11-07T13:13:00.880Z,1.50
2022-11-07T13:15:31.872Z,1.90
2022-11-07T13:18:29.873Z,1.87
2022-11-07T13:21:05.174Z,1.73
2022-11-07T13:23:33.204Z,1.33
2022-11-07T13:26:25.920Z,1.70
2022-11-07T13:29:02.432Z,2.60
2022-11-07T13:31:38.141Z,2.23
2022-11-07T13:34:18.136Z,1.63
2022-11-07T13:36:47.980Z,2.10
2022-11-07T13:39:16.266Z,2.10
2022-11-07T13:41:47.731Z,1.83
2022-11-07T13:44:31.999Z,1.60
2022-11-07T13:47:05.490Z,2.00
2022-11-07T13:49:44.752Z,1.60
2022-11-07T13:52:20.527Z,1.63
2022-11-07T13:55:17.989Z,1.87
2022-11-07T13:57:52.524Z,4.90
2022-11-07T14:00:23.276Z,6.83
2022-11-07T14:02:56.492Z,11.47
2022-11-07T14:05:27.512Z,4.50
2022-11-07T14:08:00.776Z,8.43
2022-11-07T14:10:39.212Z,4.90
2022-11-07T14:13:07.682Z,2.20
2022-11-07T14:15:37.987Z,2.30
2022-11-07T14:18:06.427Z,5.00
2022-11-07T14:20:36.833Z,2.40
2022-11-07T14:23:04.226Z,4.97
2022-11-07T14:25:34.279Z,2.90
2022-11-07T14:28:02.601Z,2.13
2022-11-07T14:30:32.143Z,2.20
2022-11-07T14:33:01.881Z,1.50
2022-11-07T14:35:30.727Z,1.60
2022-11-07T14:37:59.094Z,1.70
2022-11-07T14:40:27.358Z,1.80
2022-11-07T14:42:55.199Z,2.00
2022-11-07T14:45:56.614Z,2.50
2022-11-07T14:48:15.512Z,6.70
2022-11-07T14:50:45.059Z,2.27
2022-11-07T14:53:24.666Z,2.73
2022-11-07T14:55:59.006Z,3.30
2022-11-07T14:58:30.567Z,2.40
2022-11-07T15:01:13.781Z,2.70
2022-11-07T15:04:15.392Z,2.47
2022-11-07T15:06:45.173Z,2.47
2022-11-07T15:09:13.149Z,3.20
2022-11-07T15:11:44.309Z,3.20
2022-11-07T15:14:26.443Z,3.13
2022-11-07T15:16:54.754Z,4.03
2022-11-07T15:19:23.963Z,4.27
2022-11-07T15:22:30.272Z,3.40
2022-11-07T15:24:58.103Z,12.37
2022-11-07T15:27:33.790Z,6.13
2022-11-07T15:30:02.762Z,3.73
2022-11-07T15:32:37.355Z,4.50
2022-11-07T15:35:43.446Z,3.60
2022-11-07T15:38:03.023Z,6.70
2022-11-07T15:40:31.172Z,27.20
2022-11-07T15:42:58.413Z,43.57
2022-11-07T15:45:25.871Z,25.03
2022-11-07T15:47:53.192Z,36.00
2022-11-07T15:50:25.188Z,81.47
2022-11-07T15:52:54.151Z,83.03
2022-11-07T15:55:23.905Z,49.47
2022-11-07T15:57:54.047Z,30.30
2022-11-07T16:00:25.353Z,33.67
2022-11-07T16:02:54.775Z,39.87
2022-11-07T16:05:22.371Z,51.63
2022-11-07T16:07:50.202Z,68.73
2022-11-07T16:10:26.256Z,84.97
2022-11-07T16:12:54.526Z,51.57
2022-11-07T16:15:26.317Z,55.53
2022-11-07T16:17:53.618Z,70.43
2022-11-07T16:20:23.490Z,96.63
2022-11-07T16:22:52.464Z,77.90
2022-11-07T16:25:24.465Z,75.47
2022-11-07T16:27:59.956Z,78.43
2022-11-07T16:30:31.918Z,166.77
2022-11-07T16:33:02.578Z,107.07
2022-11-07T16:35:29.896Z,79.87
2022-11-07T16:38:01.914Z,61.23
2022-11-07T16:40:29.649Z,62.03
2022-11-07T16:43:00.485Z,76.13
2022-11-07T16:45:27.817Z,95.17
2022-11-07T16:47:55.442Z,127.13
2022-11-07T16:50:22.764Z,144.43
2022-11-07T16:52:49.981Z,343.60
2022-11-07T16:55:19.545Z,349.63
2022-11-07T16:57:48.072Z,162.03
2022-11-07T17:00:23.804Z,79.50
2022-11-07T17:02:51.540Z,64.93
2022-11-07T17:05:19.300Z,85.93
2022-11-07T17:07:46.676Z,65.93
2022-11-07T17:10:17.403Z,44.50
2022-11-07T17:12:44.670Z,56.43
2022-11-07T17:15:12.097Z,46.37
2022-11-07T17:17:40.495Z,39.43
2022-11-07T17:20:34.340Z,33.70
2022-11-07T17:23:07.990Z,79.60
2022-11-07T17:25:37.282Z,46.30
2022-11-07T17:28:05.089Z,61.33
2022-11-07T17:30:34.104Z,86.87
2022-11-07T17:33:03.904Z,105.07
2022-11-07T17:35:33.252Z,50.07
2022-11-07T17:38:01.666Z,50.43
2022-11-07T17:40:33.860Z,59.00
2022-11-07T17:43:01.933Z,64.40
2022-11-07T17:45:32.517Z,57.10
2022-11-07T17:47:59.954Z,52.47
2022-11-07T17:50:27.472Z,60.10
2022-11-07T17:52:57.856Z,67.20
2022-11-07T17:55:26.071Z,86.53
2022-11-07T17:57:53.814Z,76.47
2022-11-07T18:00:24.096Z,75.10
2022-11-07T18:02:53.019Z,69.00
2022-11-07T18:05:22.838Z,59.57
2022-11-07T18:07:50.354Z,53.03
2022-11-07T18:10:18.433Z,66.57
2022-11-07T18:12:49.032Z,69.63
2022-11-07T18:15:16.808Z,69.70
2022-11-07T18:17:44.360Z,59.53
2022-11-07T18:20:11.965Z,44.30
2022-11-07T18:22:43.405Z,41.63
2022-11-07T18:25:10.800Z,43.23
2022-11-07T18:27:38.301Z,46.57
2022-11-07T18:30:07.055Z,59.40
2022-11-07T18:32:36.388Z,61.60
2022-11-07T18:35:06.415Z,57.67
2022-11-07T18:37:34.577Z,54.07
2022-11-07T18:40:01.811Z,57.17
2022-11-07T18:42:29.578Z,60.23
2022-11-07T18:44:56.946Z,47.50
2022-11-07T18:47:24.277Z,99.53
2022-11-07T18:49:56.826Z,63.57
2022-11-07T18:52:24.545Z,46.53
2022-11-07T18:54:52.423Z,49.43
2022-11-07T18:57:19.657Z,58.53
2022-11-07T18:59:47.381Z,53.40
2022-11-07T19:02:15.954Z,52.07
2022-11-07T19:04:46.972Z,56.33
2022-11-07T19:07:14.357Z,52.97
2022-11-07T19:09:41.699Z,78.60
2022-11-07T19:12:08.923Z,61.57
2022-11-07T19:14:36.369Z,79.87
2022-11-07T19:17:05.153Z,72.13
2022-11-07T19:19:32.632Z,65.23
2022-11-07T19:22:00.027Z,68.17
2022-11-07T19:24:27.269Z,67.93
2022-11-07T19:26:54.511Z,65.57
2022-11-07T19:29:22.109Z,80.10
2022-11-07T19:31:49.467Z,86.17
2022-11-07T19:34:18.336Z,52.30
2022-11-07T19:36:48.493Z,101.63
2022-11-07T19:39:15.846Z,53.10
2022-11-07T19:41:45.702Z,96.20
2022-11-07T19:44:12.981Z,51.30
2022-11-07T19:46:40.709Z,31.43
2022-11-07T19:49:07.980Z,37.50
2022-11-07T19:51:36.527Z,36.40
2022-11-07T19:54:04.695Z,35.27
2022-11-07T19:56:32.747Z,43.13
2022-11-07T19:59:01.702Z,34.53
2022-11-07T20:01:32.287Z,32.93
2022-11-07T20:03:59.995Z,26.20
2022-11-07T20:06:32.773Z,39.30
2022-11-07T20:09:06.430Z,29.57
2022-11-07T20:11:33.962Z,32.13
2022-11-07T20:14:03.783Z,32.30
2022-11-07T20:16:35.111Z,36.73
2022-11-07T20:19:02.642Z,42.30
2022-11-07T20:21:31.023Z,40.40
2022-11-07T20:24:00.015Z,35.27
2022-11-07T20:26:29.437Z,35.83
2022-11-07T20:28:56.740Z,40.87
2022-11-07T20:31:29.302Z,46.97
2022-11-07T20:34:01.338Z,46.60
2022-11-07T20:36:29.099Z,48.50
2022-11-07T20:38:56.560Z,45.43
2022-11-07T20:41:24.687Z,43.33
2022-11-07T20:44:04.305Z,45.00
2022-11-07T20:46:33.920Z,41.77
2022-11-07T20:49:05.724Z,41.90
2022-11-07T20:51:33.082Z,39.83
2022-11-07T20:54:00.485Z,35.53
2022-11-07T20:56:29.530Z,33.83
2022-11-07T20:59:00.745Z,28.50
2022-11-07T21:01:36.407Z,25.57
2022-11-07T21:04:09.158Z,25.90
2022-11-07T21:06:37.110Z,27.77
2022-11-07T21:09:05.425Z,31.43
2022-11-07T21:11:33.313Z,33.57
2022-11-07T21:14:01.284Z,31.93
2022-11-07T21:16:29.107Z,30.57
2022-11-07T21:18:57.132Z,28.67
2022-11-07T21:21:27.765Z,25.53
2022-11-07T21:23:57.725Z,25.50
2022-11-07T21:26:33.992Z,28.50
2022-11-07T21:29:07.773Z,28.23
2022-11-07T21:31:37.223Z,29.90
2022-11-07T21:34:06.823Z,28.10
2022-11-07T21:36:34.173Z,27.60
2022-11-07T21:39:02.249Z,31.23
2022-11-07T21:41:30.832Z,28.03
2022-11-07T21:43:58.815Z,26.73
2022-11-07T21:46:31.538Z,27.40
2022-11-07T21:48:59.504Z,26.10
2022-11-07T21:51:29.760Z,24.60
2022-11-07T21:53:58.573Z,23.03
2022-11-07T21:56:31.605Z,27.10
2022-11-07T21:59:07.325Z,24.63
2022-11-07T22:01:37.276Z,27.67
2022-11-07T22:04:14.342Z,27.00
2022-11-07T22:06:44.411Z,35.83
2022-11-07T22:09:15.394Z,38.07
2022-11-07T22:11:43.121Z,35.57
2022-11-07T22:14:18.473Z,31.13
2022-11-07T22:16:46.249Z,29.07
2022-11-07T22:19:14.388Z,27.23
2022-11-07T22:21:41.958Z,25.70
2022-11-07T22:24:10.127Z,26.57
2022-11-07T22:26:37.606Z,26.77
2022-11-07T22:29:04.961Z,24.00
2022-11-07T22:31:32.681Z,22.83
2022-11-07T22:34:01.034Z,22.33
2022-11-07T22:36:29.045Z,23.73
2022-11-07T22:38:58.092Z,20.77
2022-11-07T22:41:27.765Z,18.30
2022-11-07T22:43:56.175Z,18.23
2022-11-07T22:46:29.579Z,20.30
2022-11-07T22:48:58.209Z,22.37
2022-11-07T22:51:35.664Z,26.47
2022-11-07T22:54:06.181Z,23.47
2022-11-07T22:56:36.441Z,28.47
2022-11-07T22:59:05.193Z,22.07
2022-11-07T23:01:35.471Z,22.80
2022-11-07T23:04:03.277Z,23.93
2022-11-07T23:06:30.867Z,31.83
2022-11-07T23:08:59.446Z,34.60
2022-11-07T23:11:47.585Z,51.10
2022-11-07T23:14:18.622Z,45.93
2022-11-07T23:16:49.274Z,54.50
2022-11-07T23:19:20.120Z,37.67
2022-11-07T23:21:48.096Z,33.07
2022-11-07T23:24:15.735Z,30.30
2022-11-07T23:26:43.189Z,30.80
2022-11-07T23:29:16.717Z,34.07
2022-11-07T23:31:47.144Z,32.10
2022-11-07T23:34:15.601Z,27.50
2022-11-07T23:36:47.741Z,22.47
2022-11-07T23:39:21.911Z,18.63
2022-11-07T23:41:49.394Z,18.77
2022-11-07T23:44:16.912Z,22.07
2022-11-07T23:47:03.841Z,22.50
2022-11-07T23:49:50.069Z,21.90
2022-11-07T23:52:18.713Z,23.37
2022-11-07T23:55:05.026Z,22.47
2022-11-07T23:57:57.119Z,21.90
